sensor_id;sensor_type;location;lat;lon;timestamp;P1;durP1;ratioP1;P2;durP2;ratioP2
71176;SDS011;58877;51.992;4.504;2023-02-16T00:00:45;43.99;;;43.24;;
71176;SDS011;58877;51.992;4.504;2023-02-16T00:03:18;42.96;;;42.24;;
71176;SDS011;58877;51.992;4.504;2023-02-16T00:05:46;43.22;;;42.77;;
71176;SDS011;58877;51.992;4.504;2023-02-16T00:08:15;43.25;;;42.71;;
71176;SDS011;58877;51.992;4.504;2023-02-16T00:10:44;44.63;;;43.90;;
71176;SDS011;58877;51.992;4.504;2023-02-16T00:13:33;45.10;;;44.56;;
71176;SDS011;58877;51.992;4.504;2023-02-16T00:16:14;43.84;;;43.13;;
71176;SDS011;58877;51.992;4.504;2023-02-16T00:18:47;43.74;;;43.31;;
71176;SDS011;58877;51.992;4.504;2023-02-16T00:21:14;44.80;;;43.99;;
71176;SDS011;58877;51.992;4.504;2023-02-16T00:23:45;45.30;;;44.38;;
71176;SDS011;58877;51.992;4.504;2023-02-16T00:26:23;44.13;;;43.60;;
71176;SDS011;58877;51.992;4.504;2023-02-16T00:28:57;43.70;;;43.37;;
71176;SDS011;58877;51.992;4.504;2023-02-16T00:31:28;45.00;;;44.42;;
71176;SDS011;58877;51.992;4.504;2023-02-16T00:34:30;44.73;;;43.92;;
71176;SDS011;58877;51.992;4.504;2023-02-16T00:37:01;44.02;;;43.51;;
71176;SDS011;58877;51.992;4.504;2023-02-16T00:39:57;43.85;;;43.45;;
71176;SDS011;58877;51.992;4.504;2023-02-16T00:43:03;44.47;;;44.10;;
71176;SDS011;58877;51.992;4.504;2023-02-16T00:45:52;44.19;;;43.68;;
71176;SDS011;58877;51.992;4.504;2023-02-16T00:48:25;44.50;;;43.81;;
71176;SDS011;58877;51.992;4.504;2023-02-16T00:51:04;44.24;;;43.68;;
71176;SDS011;58877;51.992;4.504;2023-02-16T00:53:37;43.48;;;43.05;;
71176;SDS011;58877;51.992;4.504;2023-02-16T00:56:03;44.35;;;43.86;;
71176;SDS011;58877;51.992;4.504;2023-02-16T00:58:29;45.08;;;44.48;;
71176;SDS011;58877;51.992;4.504;2023-02-16T01:01:01;44.31;;;43.86;;
71176;SDS011;58877;51.992;4.504;2023-02-16T01:03:53;42.99;;;42.58;;
71176;SDS011;58877;51.992;4.504;2023-02-16T01:06:29;42.67;;;42.20;;
71176;SDS011;58877;51.992;4.504;2023-02-16T01:12:20;43.72;;;43.23;;
71176;SDS011;58877;51.992;4.504;2023-02-16T01:15:00;42.55;;;42.05;;
71176;SDS011;58877;51.992;4.504;2023-02-16T01:20:15;43.46;;;42.80;;
71176;SDS011;58877;51.992;4.504;2023-02-16T01:23:05;42.41;;;42.04;;
71176;SDS011;58877;51.992;4.504;2023-02-16T01:25:34;43.81;;;43.00;;
71176;SDS011;58877;51.992;4.504;2023-02-16T01:28:25;43.00;;;42.31;;
71176;SDS011;58877;51.992;4.504;2023-02-16T01:30:56;43.90;;;43.29;;
71176;SDS011;58877;51.992;4.504;2023-02-16T01:33:27;42.23;;;41.72;;
71176;SDS011;58877;51.992;4.504;2023-02-16T01:36:04;43.06;;;42.61;;
71176;SDS011;58877;51.992;4.504;2023-02-16T01:38:44;42.66;;;42.02;;
71176;SDS011;58877;51.992;4.504;2023-02-16T01:44:20;42.21;;;41.63;;
71176;SDS011;58877;51.992;4.504;2023-02-16T01:46:59;42.81;;;42.18;;
71176;SDS011;58877;51.992;4.504;2023-02-16T01:49:32;42.67;;;42.21;;
71176;SDS011;58877;51.992;4.504;2023-02-16T01:52:02;42.49;;;42.07;;
71176;SDS011;58877;51.992;4.504;2023-02-16T01:55:25;41.29;;;40.90;;
71176;SDS011;58877;51.992;4.504;2023-02-16T01:58:04;43.14;;;42.30;;
71176;SDS011;58877;51.992;4.504;2023-02-16T02:03:15;42.63;;;42.17;;
71176;SDS011;58877;51.992;4.504;2023-02-16T02:06:20;41.80;;;41.20;;
71176;SDS011;58877;51.992;4.504;2023-02-16T02:09:22;40.94;;;40.55;;
71176;SDS011;58877;51.992;4.504;2023-02-16T02:12:08;41.60;;;41.09;;
71176;SDS011;58877;51.992;4.504;2023-02-16T02:14:57;41.91;;;41.21;;
71176;SDS011;58877;51.992;4.504;2023-02-16T02:17:26;42.50;;;42.04;;
71176;SDS011;58877;51.992;4.504;2023-02-16T02:20:40;42.24;;;41.57;;
71176;SDS011;58877;51.992;4.504;2023-02-16T02:28:47;41.42;;;40.89;;
71176;SDS011;58877;51.992;4.504;2023-02-16T02:35:21;40.97;;;40.12;;
71176;SDS011;58877;51.992;4.504;2023-02-16T02:40:58;40.23;;;39.59;;
71176;SDS011;58877;51.992;4.504;2023-02-16T02:44:10;40.89;;;40.47;;
71176;SDS011;58877;51.992;4.504;2023-02-16T02:46:42;41.15;;;40.48;;
71176;SDS011;58877;51.992;4.504;2023-02-16T02:49:09;40.89;;;40.33;;
71176;SDS011;58877;51.992;4.504;2023-02-16T02:51:34;40.31;;;39.54;;
71176;SDS011;58877;51.992;4.504;2023-02-16T02:56:58;39.51;;;38.96;;
71176;SDS011;58877;51.992;4.504;2023-02-16T03:08:59;41.41;;;40.46;;
71176;SDS011;58877;51.992;4.504;2023-02-16T03:11:35;39.54;;;39.03;;
71176;SDS011;58877;51.992;4.504;2023-02-16T03:17:16;40.24;;;39.56;;
71176;SDS011;58877;51.992;4.504;2023-02-16T03:20:06;39.10;;;38.57;;
71176;SDS011;58877;51.992;4.504;2023-02-16T03:22:57;38.76;;;38.32;;
71176;SDS011;58877;51.992;4.504;2023-02-16T03:25:45;38.57;;;38.12;;
71176;SDS011;58877;51.992;4.504;2023-02-16T03:28:30;38.83;;;38.28;;
71176;SDS011;58877;51.992;4.504;2023-02-16T03:31:19;38.50;;;38.15;;
71176;SDS011;58877;51.992;4.504;2023-02-16T03:33:57;39.00;;;38.48;;
71176;SDS011;58877;51.992;4.504;2023-02-16T03:36:24;39.41;;;38.91;;
71176;SDS011;58877;51.992;4.504;2023-02-16T03:38:53;39.72;;;38.88;;
71176;SDS011;58877;51.992;4.504;2023-02-16T03:41:22;39.25;;;38.75;;
71176;SDS011;58877;51.992;4.504;2023-02-16T03:43:48;39.21;;;38.80;;
71176;SDS011;58877;51.992;4.504;2023-02-16T03:46:14;39.19;;;38.60;;
71176;SDS011;58877;51.992;4.504;2023-02-16T03:48:40;40.32;;;39.51;;
71176;SDS011;58877;51.992;4.504;2023-02-16T03:51:08;38.90;;;38.41;;
71176;SDS011;58877;51.992;4.504;2023-02-16T03:53:34;38.56;;;38.21;;
71176;SDS011;58877;51.992;4.504;2023-02-16T03:55:59;39.15;;;38.83;;
71176;SDS011;58877;51.992;4.504;2023-02-16T03:58:25;37.57;;;37.28;;
71176;SDS011;58877;51.992;4.504;2023-02-16T04:00:51;38.51;;;38.08;;
71176;SDS011;58877;51.992;4.504;2023-02-16T04:03:17;37.97;;;37.53;;
71176;SDS011;58877;51.992;4.504;2023-02-16T04:05:43;38.71;;;38.25;;
71176;SDS011;58877;51.992;4.504;2023-02-16T04:08:09;37.99;;;37.49;;
71176;SDS011;58877;51.992;4.504;2023-02-16T04:10:36;37.90;;;37.40;;
71176;SDS011;58877;51.992;4.504;2023-02-16T04:13:02;38.52;;;37.94;;
71176;SDS011;58877;51.992;4.504;2023-02-16T04:15:28;38.58;;;38.18;;
71176;SDS011;58877;51.992;4.504;2023-02-16T04:17:55;38.85;;;37.97;;
71176;SDS011;58877;51.992;4.504;2023-02-16T04:20:23;38.83;;;38.46;;
71176;SDS011;58877;51.992;4.504;2023-02-16T04:22:51;38.09;;;37.74;;
71176;SDS011;58877;51.992;4.504;2023-02-16T04:25:16;39.76;;;39.19;;
71176;SDS011;58877;51.992;4.504;2023-02-16T04:27:43;38.54;;;37.93;;
71176;SDS011;58877;51.992;4.504;2023-02-16T04:30:13;39.48;;;38.90;;
71176;SDS011;58877;51.992;4.504;2023-02-16T04:32:41;39.62;;;38.96;;
71176;SDS011;58877;51.992;4.504;2023-02-16T04:35:07;38.01;;;37.68;;
71176;SDS011;58877;51.992;4.504;2023-02-16T04:37:33;38.98;;;38.50;;
71176;SDS011;58877;51.992;4.504;2023-02-16T04:40:00;39.41;;;38.98;;
71176;SDS011;58877;51.992;4.504;2023-02-16T04:42:26;38.29;;;37.74;;
71176;SDS011;58877;51.992;4.504;2023-02-16T04:44:51;38.26;;;37.97;;
71176;SDS011;58877;51.992;4.504;2023-02-16T04:47:17;38.76;;;38.08;;
71176;SDS011;58877;51.992;4.504;2023-02-16T04:49:43;38.83;;;38.38;;
71176;SDS011;58877;51.992;4.504;2023-02-16T04:52:10;38.80;;;38.47;;
71176;SDS011;58877;51.992;4.504;2023-02-16T04:54:37;38.40;;;37.96;;
71176;SDS011;58877;51.992;4.504;2023-02-16T04:57:02;38.22;;;37.88;;
71176;SDS011;58877;51.992;4.504;2023-02-16T04:59:28;39.21;;;38.66;;
71176;SDS011;58877;51.992;4.504;2023-02-16T05:01:54;38.48;;;38.18;;
71176;SDS011;58877;51.992;4.504;2023-02-16T05:04:19;38.09;;;37.72;;
71176;SDS011;58877;51.992;4.504;2023-02-16T05:06:45;40.33;;;39.35;;
71176;SDS011;58877;51.992;4.504;2023-02-16T05:09:11;40.21;;;39.66;;
71176;SDS011;58877;51.992;4.504;2023-02-16T05:11:36;39.40;;;38.90;;
71176;SDS011;58877;51.992;4.504;2023-02-16T05:14:22;39.18;;;38.72;;
71176;SDS011;58877;51.992;4.504;2023-02-16T05:17:10;39.25;;;38.89;;
71176;SDS011;58877;51.992;4.504;2023-02-16T05:19:42;38.81;;;38.44;;
71176;SDS011;58877;51.992;4.504;2023-02-16T05:22:10;40.55;;;40.05;;
71176;SDS011;58877;51.992;4.504;2023-02-16T05:24:36;39.54;;;39.14;;
71176;SDS011;58877;51.992;4.504;2023-02-16T05:27:03;39.15;;;38.78;;
71176;SDS011;58877;51.992;4.504;2023-02-16T05:29:31;38.52;;;38.09;;
71176;SDS011;58877;51.992;4.504;2023-02-16T05:31:57;40.02;;;39.45;;
71176;SDS011;58877;51.992;4.504;2023-02-16T05:34:23;39.56;;;39.17;;
71176;SDS011;58877;51.992;4.504;2023-02-16T05:36:49;39.76;;;39.13;;
71176;SDS011;58877;51.992;4.504;2023-02-16T05:39:15;39.48;;;39.13;;
71176;SDS011;58877;51.992;4.504;2023-02-16T05:41:40;39.85;;;39.56;;
71176;SDS011;58877;51.992;4.504;2023-02-16T05:44:06;39.89;;;39.46;;
71176;SDS011;58877;51.992;4.504;2023-02-16T05:46:34;39.75;;;39.13;;
71176;SDS011;58877;51.992;4.504;2023-02-16T05:49:02;40.96;;;40.43;;
71176;SDS011;58877;51.992;4.504;2023-02-16T05:51:29;41.12;;;40.61;;
71176;SDS011;58877;51.992;4.504;2023-02-16T05:53:55;39.66;;;39.22;;
71176;SDS011;58877;51.992;4.504;2023-02-16T05:56:22;39.71;;;39.17;;
71176;SDS011;58877;51.992;4.504;2023-02-16T05:58:48;39.67;;;39.30;;
71176;SDS011;58877;51.992;4.504;2023-02-16T06:01:14;40.01;;;39.41;;
71176;SDS011;58877;51.992;4.504;2023-02-16T06:03:40;39.30;;;38.84;;
71176;SDS011;58877;51.992;4.504;2023-02-16T06:06:06;40.99;;;40.39;;
71176;SDS011;58877;51.992;4.504;2023-02-16T06:08:32;40.09;;;39.65;;
71176;SDS011;58877;51.992;4.504;2023-02-16T06:10:57;40.01;;;39.63;;
71176;SDS011;58877;51.992;4.504;2023-02-16T06:13:24;40.33;;;40.03;;
71176;SDS011;58877;51.992;4.504;2023-02-16T06:15:51;40.06;;;39.64;;
71176;SDS011;58877;51.992;4.504;2023-02-16T06:18:19;39.93;;;39.51;;
71176;SDS011;58877;51.992;4.504;2023-02-16T06:20:46;40.26;;;39.59;;
71176;SDS011;58877;51.992;4.504;2023-02-16T06:23:12;41.32;;;40.69;;
71176;SDS011;58877;51.992;4.504;2023-02-16T06:25:47;40.98;;;40.60;;
71176;SDS011;58877;51.992;4.504;2023-02-16T06:28:15;40.10;;;39.63;;
71176;SDS011;58877;51.992;4.504;2023-02-16T06:30:40;40.72;;;40.35;;
71176;SDS011;58877;51.992;4.504;2023-02-16T06:33:06;40.65;;;40.19;;
71176;SDS011;58877;51.992;4.504;2023-02-16T06:35:32;40.70;;;40.12;;
71176;SDS011;58877;51.992;4.504;2023-02-16T06:37:58;40.72;;;40.14;;
71176;SDS011;58877;51.992;4.504;2023-02-16T06:40:24;39.29;;;38.81;;
71176;SDS011;58877;51.992;4.504;2023-02-16T06:42:50;40.55;;;40.10;;
71176;SDS011;58877;51.992;4.504;2023-02-16T06:45:16;39.62;;;39.39;;
71176;SDS011;58877;51.992;4.504;2023-02-16T06:47:41;40.71;;;40.21;;
71176;SDS011;58877;51.992;4.504;2023-02-16T06:50:07;41.14;;;40.82;;
71176;SDS011;58877;51.992;4.504;2023-02-16T06:52:38;39.94;;;39.62;;
71176;SDS011;58877;51.992;4.504;2023-02-16T06:55:04;38.92;;;38.61;;
71176;SDS011;58877;51.992;4.504;2023-02-16T06:57:30;40.49;;;39.85;;
71176;SDS011;58877;51.992;4.504;2023-02-16T06:59:56;40.86;;;40.17;;
71176;SDS011;58877;51.992;4.504;2023-02-16T07:02:22;39.65;;;39.26;;
71176;SDS011;58877;51.992;4.504;2023-02-16T07:04:47;40.28;;;39.80;;
71176;SDS011;58877;51.992;4.504;2023-02-16T07:07:13;39.57;;;39.19;;
71176;SDS011;58877;51.992;4.504;2023-02-16T07:09:38;39.87;;;39.55;;
71176;SDS011;58877;51.992;4.504;2023-02-16T07:12:04;40.61;;;40.15;;
71176;SDS011;58877;51.992;4.504;2023-02-16T07:14:31;39.43;;;38.77;;
71176;SDS011;58877;51.992;4.504;2023-02-16T07:16:57;40.03;;;39.61;;
71176;SDS011;58877;51.992;4.504;2023-02-16T07:19:29;39.05;;;38.74;;
71176;SDS011;58877;51.992;4.504;2023-02-16T07:22:00;38.53;;;38.17;;
71176;SDS011;58877;51.992;4.504;2023-02-16T07:24:26;39.56;;;39.13;;
71176;SDS011;58877;51.992;4.504;2023-02-16T07:26:52;39.93;;;39.53;;
71176;SDS011;58877;51.992;4.504;2023-02-16T07:29:20;39.94;;;39.38;;
71176;SDS011;58877;51.992;4.504;2023-02-16T07:31:45;39.81;;;39.39;;
71176;SDS011;58877;51.992;4.504;2023-02-16T07:34:11;40.48;;;40.03;;
71176;SDS011;58877;51.992;4.504;2023-02-16T07:36:36;39.28;;;38.70;;
71176;SDS011;58877;51.992;4.504;2023-02-16T07:39:02;39.16;;;38.51;;
71176;SDS011;58877;51.992;4.504;2023-02-16T07:41:28;39.94;;;39.45;;
71176;SDS011;58877;51.992;4.504;2023-02-16T07:43:54;40.76;;;40.23;;
71176;SDS011;58877;51.992;4.504;2023-02-16T07:46:19;39.85;;;39.39;;
71176;SDS011;58877;51.992;4.504;2023-02-16T07:48:48;40.47;;;39.92;;
71176;SDS011;58877;51.992;4.504;2023-02-16T07:51:21;40.07;;;39.68;;
71176;SDS011;58877;51.992;4.504;2023-02-16T07:53:47;39.25;;;39.12;;
71176;SDS011;58877;51.992;4.504;2023-02-16T07:56:18;40.08;;;39.65;;
71176;SDS011;58877;51.992;4.504;2023-02-16T07:58:55;39.98;;;39.55;;
71176;SDS011;58877;51.992;4.504;2023-02-16T08:01:25;40.72;;;40.25;;
71176;SDS011;58877;51.992;4.504;2023-02-16T08:03:52;40.22;;;39.90;;
71176;SDS011;58877;51.992;4.504;2023-02-16T08:06:18;38.88;;;38.51;;
71176;SDS011;58877;51.992;4.504;2023-02-16T08:08:45;40.87;;;40.51;;
71176;SDS011;58877;51.992;4.504;2023-02-16T08:11:12;39.47;;;39.07;;
71176;SDS011;58877;51.992;4.504;2023-02-16T08:13:41;39.24;;;38.82;;
71176;SDS011;58877;51.992;4.504;2023-02-16T08:16:11;40.92;;;40.68;;
71176;SDS011;58877;51.992;4.504;2023-02-16T08:18:47;42.44;;;41.94;;
71176;SDS011;58877;51.992;4.504;2023-02-16T08:21:27;40.38;;;40.04;;
71176;SDS011;58877;51.992;4.504;2023-02-16T08:24:02;40.62;;;40.14;;
71176;SDS011;58877;51.992;4.504;2023-02-16T08:26:42;42.32;;;41.88;;
71176;SDS011;58877;51.992;4.504;2023-02-16T08:29:14;41.74;;;41.15;;
71176;SDS011;58877;51.992;4.504;2023-02-16T08:31:42;42.10;;;41.51;;
71176;SDS011;58877;51.992;4.504;2023-02-16T08:34:10;42.48;;;42.01;;
71176;SDS011;58877;51.992;4.504;2023-02-16T08:36:38;43.12;;;42.45;;
71176;SDS011;58877;51.992;4.504;2023-02-16T08:39:07;42.53;;;42.32;;
71176;SDS011;58877;51.992;4.504;2023-02-16T08:41:37;43.83;;;43.34;;
71176;SDS011;58877;51.992;4.504;2023-02-16T08:44:04;42.32;;;41.96;;
71176;SDS011;58877;51.992;4.504;2023-02-16T08:46:33;43.36;;;43.02;;
71176;SDS011;58877;51.992;4.504;2023-02-16T08:49:04;43.19;;;42.84;;
71176;SDS011;58877;51.992;4.504;2023-02-16T08:51:32;43.15;;;42.45;;
71176;SDS011;58877;51.992;4.504;2023-02-16T08:54:00;41.94;;;41.48;;
71176;SDS011;58877;51.992;4.504;2023-02-16T08:56:27;43.50;;;43.11;;
71176;SDS011;58877;51.992;4.504;2023-02-16T08:58:54;43.58;;;43.03;;
71176;SDS011;58877;51.992;4.504;2023-02-16T09:01:22;42.34;;;41.83;;
71176;SDS011;58877;51.992;4.504;2023-02-16T09:03:48;41.17;;;40.90;;
71176;SDS011;58877;51.992;4.504;2023-02-16T09:06:16;41.69;;;41.39;;
71176;SDS011;58877;51.992;4.504;2023-02-16T09:08:49;42.74;;;42.19;;
71176;SDS011;58877;51.992;4.504;2023-02-16T09:11:17;41.64;;;41.48;;
71176;SDS011;58877;51.992;4.504;2023-02-16T09:13:43;40.81;;;40.34;;
71176;SDS011;58877;51.992;4.504;2023-02-16T09:16:12;41.54;;;41.34;;
71176;SDS011;58877;51.992;4.504;2023-02-16T09:18:40;41.76;;;41.26;;
71176;SDS011;58877;51.992;4.504;2023-02-16T09:21:13;42.25;;;41.69;;
71176;SDS011;58877;51.992;4.504;2023-02-16T09:23:41;40.51;;;39.90;;
71176;SDS011;58877;51.992;4.504;2023-02-16T09:26:11;39.97;;;39.64;;
71176;SDS011;58877;51.992;4.504;2023-02-16T09:28:37;40.24;;;40.06;;
71176;SDS011;58877;51.992;4.504;2023-02-16T09:31:15;40.42;;;40.03;;
71176;SDS011;58877;51.992;4.504;2023-02-16T09:33:44;40.99;;;40.72;;
71176;SDS011;58877;51.992;4.504;2023-02-16T09:36:11;41.26;;;41.05;;
71176;SDS011;58877;51.992;4.504;2023-02-16T09:38:38;40.05;;;39.78;;
71176;SDS011;58877;51.992;4.504;2023-02-16T09:41:06;40.21;;;39.75;;
71176;SDS011;58877;51.992;4.504;2023-02-16T09:43:48;39.69;;;39.40;;
71176;SDS011;58877;51.992;4.504;2023-02-16T09:46:22;40.92;;;40.51;;
71176;SDS011;58877;51.992;4.504;2023-02-16T09:48:50;40.26;;;39.92;;
71176;SDS011;58877;51.992;4.504;2023-02-16T09:51:19;39.29;;;39.13;;
71176;SDS011;58877;51.992;4.504;2023-02-16T09:53:58;38.45;;;38.25;;
71176;SDS011;58877;51.992;4.504;2023-02-16T09:56:44;38.18;;;37.96;;
71176;SDS011;58877;51.992;4.504;2023-02-16T09:59:26;39.18;;;38.72;;
71176;SDS011;58877;51.992;4.504;2023-02-16T10:02:03;39.58;;;39.11;;
71176;SDS011;58877;51.992;4.504;2023-02-16T10:05:08;40.42;;;39.93;;
71176;SDS011;58877;51.992;4.504;2023-02-16T10:07:44;39.80;;;39.54;;
71176;SDS011;58877;51.992;4.504;2023-02-16T10:10:20;39.99;;;39.34;;
71176;SDS011;58877;51.992;4.504;2023-02-16T10:12:51;40.46;;;39.88;;
71176;SDS011;58877;51.992;4.504;2023-02-16T10:15:26;40.64;;;40.16;;
71176;SDS011;58877;51.992;4.504;2023-02-16T10:18:38;38.78;;;38.44;;
71176;SDS011;58877;51.992;4.504;2023-02-16T10:21:06;38.67;;;38.46;;
71176;SDS011;58877;51.992;4.504;2023-02-16T10:23:47;39.79;;;39.49;;
71176;SDS011;58877;51.992;4.504;2023-02-16T10:26:21;39.50;;;39.04;;
71176;SDS011;58877;51.992;4.504;2023-02-16T10:29:02;39.90;;;39.43;;
71176;SDS011;58877;51.992;4.504;2023-02-16T10:31:38;40.47;;;39.93;;
71176;SDS011;58877;51.992;4.504;2023-02-16T10:36:47;39.04;;;38.89;;
71176;SDS011;58877;51.992;4.504;2023-02-16T10:42:47;39.26;;;38.73;;
71176;SDS011;58877;51.992;4.504;2023-02-16T10:48:10;37.85;;;37.15;;
71176;SDS011;58877;51.992;4.504;2023-02-16T10:50:38;38.40;;;37.90;;
71176;SDS011;58877;51.992;4.504;2023-02-16T10:53:12;38.35;;;37.94;;
71176;SDS011;58877;51.992;4.504;2023-02-16T10:55:58;38.48;;;38.10;;
71176;SDS011;58877;51.992;4.504;2023-02-16T10:58:36;38.28;;;38.10;;
71176;SDS011;58877;51.992;4.504;2023-02-16T11:01:12;40.16;;;39.80;;
71176;SDS011;58877;51.992;4.504;2023-02-16T11:03:44;38.44;;;38.16;;
71176;SDS011;58877;51.992;4.504;2023-02-16T11:06:14;39.28;;;38.84;;
71176;SDS011;58877;51.992;4.504;2023-02-16T11:08:50;38.27;;;38.18;;
71176;SDS011;58877;51.992;4.504;2023-02-16T11:11:20;37.34;;;37.06;;
71176;SDS011;58877;51.992;4.504;2023-02-16T11:13:55;36.90;;;36.70;;
71176;SDS011;58877;51.992;4.504;2023-02-16T11:16:29;36.26;;;35.96;;
71176;SDS011;58877;51.992;4.504;2023-02-16T11:19:04;35.61;;;35.44;;
71176;SDS011;58877;51.992;4.504;2023-02-16T11:21:43;36.46;;;36.04;;
71176;SDS011;58877;51.992;4.504;2023-02-16T11:24:11;37.45;;;36.82;;
71176;SDS011;58877;51.992;4.504;2023-02-16T11:26:58;36.14;;;35.74;;
71176;SDS011;58877;51.992;4.504;2023-02-16T11:29:30;35.00;;;34.77;;
71176;SDS011;58877;51.992;4.504;2023-02-16T11:31:56;35.42;;;34.86;;
71176;SDS011;58877;51.992;4.504;2023-02-16T11:39:47;34.54;;;34.32;;
71176;SDS011;58877;51.992;4.504;2023-02-16T11:44:59;32.71;;;32.29;;
71176;SDS011;58877;51.992;4.504;2023-02-16T11:47:32;32.70;;;32.33;;
71176;SDS011;58877;51.992;4.504;2023-02-16T11:50:53;31.29;;;31.02;;
71176;SDS011;58877;51.992;4.504;2023-02-16T11:55:43;30.60;;;30.47;;
71176;SDS011;58877;51.992;4.504;2023-02-16T11:58:15;30.05;;;29.94;;
71176;SDS011;58877;51.992;4.504;2023-02-16T12:00:44;32.00;;;31.83;;
71176;SDS011;58877;51.992;4.504;2023-02-16T12:03:20;31.76;;;31.52;;
71176;SDS011;58877;51.992;4.504;2023-02-16T12:08:41;32.67;;;32.41;;
71176;SDS011;58877;51.992;4.504;2023-02-16T12:11:27;32.11;;;31.67;;
71176;SDS011;58877;51.992;4.504;2023-02-16T12:19:41;30.28;;;29.89;;
71176;SDS011;58877;51.992;4.504;2023-02-16T12:27:21;28.15;;;27.90;;
71176;SDS011;58877;51.992;4.504;2023-02-16T12:33:10;26.44;;;26.23;;
71176;SDS011;58877;51.992;4.504;2023-02-16T12:38:47;25.26;;;25.24;;
71176;SDS011;58877;51.992;4.504;2023-02-16T12:43:52;24.57;;;24.36;;
71176;SDS011;58877;51.992;4.504;2023-02-16T12:46:34;22.39;;;22.25;;
71176;SDS011;58877;51.992;4.504;2023-02-16T12:49:04;21.94;;;21.88;;
71176;SDS011;58877;51.992;4.504;2023-02-16T12:55:07;19.09;;;18.97;;
71176;SDS011;58877;51.992;4.504;2023-02-16T12:57:45;20.44;;;20.33;;
71176;SDS011;58877;51.992;4.504;2023-02-16T13:00:20;19.97;;;19.83;;
71176;SDS011;58877;51.992;4.504;2023-02-16T13:02:55;20.14;;;19.93;;
71176;SDS011;58877;51.992;4.504;2023-02-16T13:05:34;19.07;;;18.88;;
71176;SDS011;58877;51.992;4.504;2023-02-16T13:10:59;18.85;;;18.63;;
71176;SDS011;58877;51.992;4.504;2023-02-16T13:13:35;19.77;;;19.56;;
71176;SDS011;58877;51.992;4.504;2023-02-16T13:16:07;19.52;;;19.47;;
71176;SDS011;58877;51.992;4.504;2023-02-16T13:18:45;20.18;;;20.17;;
71176;SDS011;58877;51.992;4.504;2023-02-16T13:21:33;20.15;;;20.10;;
71176;SDS011;58877;51.992;4.504;2023-02-16T13:27:21;20.30;;;20.15;;
71176;SDS011;58877;51.992;4.504;2023-02-16T13:33:17;21.26;;;21.18;;
71176;SDS011;58877;51.992;4.504;2023-02-16T13:36:17;22.76;;;22.69;;
71176;SDS011;58877;51.992;4.504;2023-02-16T13:44:19;22.62;;;22.41;;
71176;SDS011;58877;51.992;4.504;2023-02-16T13:46:50;23.00;;;22.88;;
71176;SDS011;58877;51.992;4.504;2023-02-16T13:49:29;23.13;;;22.82;;
71176;SDS011;58877;51.992;4.504;2023-02-16T13:54:56;23.29;;;23.03;;
71176;SDS011;58877;51.992;4.504;2023-02-16T14:00:26;22.97;;;22.83;;
71176;SDS011;58877;51.992;4.504;2023-02-16T14:05:43;23.37;;;23.19;;
71176;SDS011;58877;51.992;4.504;2023-02-16T14:14:00;23.35;;;23.27;;
71176;SDS011;58877;51.992;4.504;2023-02-16T14:18:53;21.47;;;21.20;;
71176;SDS011;58877;51.992;4.504;2023-02-16T14:24:10;21.94;;;21.87;;
71176;SDS011;58877;51.992;4.504;2023-02-16T14:26:55;21.48;;;21.25;;
71176;SDS011;58877;51.992;4.504;2023-02-16T14:29:28;21.21;;;21.15;;
71176;SDS011;58877;51.992;4.504;2023-02-16T14:34:38;20.27;;;20.15;;
71176;SDS011;58877;51.992;4.504;2023-02-16T14:39:42;21.50;;;21.29;;
71176;SDS011;58877;51.992;4.504;2023-02-16T14:42:13;20.39;;;20.34;;
71176;SDS011;58877;51.992;4.504;2023-02-16T14:47:48;21.29;;;21.13;;
71176;SDS011;58877;51.992;4.504;2023-02-16T14:50:47;21.34;;;21.17;;
71176;SDS011;58877;51.992;4.504;2023-02-16T14:53:43;20.85;;;20.83;;
71176;SDS011;58877;51.992;4.504;2023-02-16T14:56:39;19.28;;;19.19;;
71176;SDS011;58877;51.992;4.504;2023-02-16T14:59:16;19.73;;;19.68;;
71176;SDS011;58877;51.992;4.504;2023-02-16T15:01:51;19.44;;;19.34;;
71176;SDS011;58877;51.992;4.504;2023-02-16T15:04:32;19.27;;;19.24;;
71176;SDS011;58877;51.992;4.504;2023-02-16T15:07:00;19.15;;;19.01;;
71176;SDS011;58877;51.992;4.504;2023-02-16T15:09:30;18.73;;;18.61;;
71176;SDS011;58877;51.992;4.504;2023-02-16T15:12:10;19.47;;;19.28;;
71176;SDS011;58877;51.992;4.504;2023-02-16T15:17:33;20.25;;;20.08;;
71176;SDS011;58877;51.992;4.504;2023-02-16T15:22:55;20.85;;;20.72;;
71176;SDS011;58877;51.992;4.504;2023-02-16T15:28:02;22.12;;;21.96;;
71176;SDS011;58877;51.992;4.504;2023-02-16T15:30:49;22.06;;;22.00;;
71176;SDS011;58877;51.992;4.504;2023-02-16T15:35:52;21.24;;;21.14;;
71176;SDS011;58877;51.992;4.504;2023-02-16T15:38:30;22.62;;;22.44;;
71176;SDS011;58877;51.992;4.504;2023-02-16T15:41:03;22.05;;;21.79;;
71176;SDS011;58877;51.992;4.504;2023-02-16T15:43:35;22.16;;;22.09;;
71176;SDS011;58877;51.992;4.504;2023-02-16T15:46:12;22.45;;;22.39;;
71176;SDS011;58877;51.992;4.504;2023-02-16T15:48:53;22.23;;;22.14;;
71176;SDS011;58877;51.992;4.504;2023-02-16T15:51:24;22.60;;;22.28;;
71176;SDS011;58877;51.992;4.504;2023-02-16T15:53:54;21.84;;;21.74;;
71176;SDS011;58877;51.992;4.504;2023-02-16T15:58:57;22.49;;;22.48;;
71176;SDS011;58877;51.992;4.504;2023-02-16T16:01:30;23.35;;;23.22;;
71176;SDS011;58877;51.992;4.504;2023-02-16T16:03:59;23.69;;;23.47;;
71176;SDS011;58877;51.992;4.504;2023-02-16T16:06:34;22.79;;;22.69;;
71176;SDS011;58877;51.992;4.504;2023-02-16T16:09:04;23.03;;;22.99;;
71176;SDS011;58877;51.992;4.504;2023-02-16T16:11:35;24.03;;;23.89;;
71176;SDS011;58877;51.992;4.504;2023-02-16T16:14:01;25.00;;;24.84;;
71176;SDS011;58877;51.992;4.504;2023-02-16T16:16:30;25.83;;;25.57;;
71176;SDS011;58877;51.992;4.504;2023-02-16T16:19:01;24.62;;;24.49;;
71176;SDS011;58877;51.992;4.504;2023-02-16T16:21:49;25.36;;;25.14;;
71176;SDS011;58877;51.992;4.504;2023-02-16T16:24:37;24.73;;;24.40;;
71176;SDS011;58877;51.992;4.504;2023-02-16T16:27:12;26.19;;;25.94;;
71176;SDS011;58877;51.992;4.504;2023-02-16T16:29:39;26.69;;;26.47;;
71176;SDS011;58877;51.992;4.504;2023-02-16T16:32:06;27.68;;;27.39;;
71176;SDS011;58877;51.992;4.504;2023-02-16T16:34:45;28.48;;;28.23;;
71176;SDS011;58877;51.992;4.504;2023-02-16T16:39:44;30.22;;;29.70;;
71176;SDS011;58877;51.992;4.504;2023-02-16T16:42:40;29.37;;;28.92;;
71176;SDS011;58877;51.992;4.504;2023-02-16T16:48:41;27.10;;;26.76;;
71176;SDS011;58877;51.992;4.504;2023-02-16T16:51:12;25.44;;;25.29;;
71176;SDS011;58877;51.992;4.504;2023-02-16T16:56:25;23.78;;;23.54;;
71176;SDS011;58877;51.992;4.504;2023-02-16T16:58:53;24.16;;;24.03;;
71176;SDS011;58877;51.992;4.504;2023-02-16T17:01:24;24.09;;;23.92;;
71176;SDS011;58877;51.992;4.504;2023-02-16T17:03:51;25.65;;;25.48;;
71176;SDS011;58877;51.992;4.504;2023-02-16T17:06:17;25.12;;;25.00;;
71176;SDS011;58877;51.992;4.504;2023-02-16T17:08:44;25.79;;;25.53;;
71176;SDS011;58877;51.992;4.504;2023-02-16T17:11:32;25.71;;;25.52;;
71176;SDS011;58877;51.992;4.504;2023-02-16T17:14:02;24.57;;;24.13;;
71176;SDS011;58877;51.992;4.504;2023-02-16T17:16:35;22.74;;;22.59;;
71176;SDS011;58877;51.992;4.504;2023-02-16T17:19:04;23.71;;;23.57;;
71176;SDS011;58877;51.992;4.504;2023-02-16T17:21:30;23.60;;;23.31;;
71176;SDS011;58877;51.992;4.504;2023-02-16T17:23:56;24.42;;;23.97;;